createdAt,value
2023-04-15T00:03:26.775Z,5.90
2023-04-15T00:07:29.633Z,7.07
2023-04-15T00:11:31.581Z,5.60
2023-04-15T00:15:33.754Z,8.75
2023-04-15T00:19:35.521Z,8.02
2023-04-15T00:23:37.193Z,6.15
2023-04-15T00:27:38.974Z,8.77
2023-04-15T00:31:40.994Z,7.93
2023-04-15T00:35:42.800Z,7.45
2023-04-15T00:39:45.171Z,5.65
2023-04-15T00:43:46.912Z,7.32
2023-04-15T00:47:48.794Z,8.07
2023-04-15T00:51:50.624Z,7.93
2023-04-15T00:55:52.714Z,8.98
2023-04-15T00:59:56.809Z,10.80
2023-04-15T01:03:58.934Z,11.10
2023-04-15T01:08:03.203Z,9.02
2023-04-15T01:12:06.035Z,8.80
2023-04-15T01:16:08.864Z,10.77
2023-04-15T01:20:12.139Z,12.00
2023-04-15T01:24:17.826Z,9.93
2023-04-15T01:28:20.359Z,9.70
2023-04-15T01:32:22.791Z,8.82
2023-04-15T01:36:45.616Z,10.38
2023-04-15T01:40:47.252Z,8.07
2023-04-15T01:44:48.991Z,11.25
2023-04-15T01:48:50.924Z,13.00
2023-04-15T01:52:52.843Z,9.25
2023-04-15T01:56:54.533Z,8.50
2023-04-15T02:00:56.634Z,11.32
2023-04-15T02:04:58.434Z,11.48
2023-04-15T02:09:00.385Z,11.05
2023-04-15T02:13:02.617Z,10.95
2023-04-15T02:17:07.440Z,11.63
2023-04-15T02:21:09.194Z,11.77
2023-04-15T02:25:13.237Z,12.15
2023-04-15T02:29:14.939Z,11.70
2023-04-15T02:33:16.681Z,13.00
2023-04-15T02:37:20.373Z,9.38
2023-04-15T02:41:27.253Z,10.60
2023-04-15T02:45:29.133Z,12.27
2023-04-15T02:49:31.098Z,12.88
2023-04-15T02:53:32.805Z,10.25
2023-04-15T02:57:37.247Z,9.73
2023-04-15T03:01:41.458Z,12.43
2023-04-15T03:05:44.703Z,13.52
2023-04-15T03:09:47.802Z,15.07
2023-04-15T03:13:49.682Z,9.45
2023-04-15T03:18:01.679Z,8.70
2023-04-15T03:22:04.131Z,8.32
2023-04-15T03:26:06.642Z,8.32
2023-04-15T03:30:09.946Z,9.20
2023-04-15T03:34:13.854Z,6.55
2023-04-15T03:38:16.551Z,7.05
2023-04-15T03:42:18.334Z,5.93
2023-04-15T03:46:20.492Z,7.78
2023-04-15T03:50:22.538Z,5.53
2023-04-15T03:54:24.749Z,6.47
2023-04-15T03:58:26.834Z,5.82
2023-04-15T04:02:29.022Z,7.45
2023-04-15T04:06:31.346Z,7.60
2023-04-15T04:10:33.103Z,8.90
2023-04-15T04:14:34.886Z,7.78
2023-04-15T04:18:36.958Z,7.38
2023-04-15T04:22:40.229Z,9.60
2023-04-15T04:26:42.313Z,8.07
2023-04-15T04:30:45.195Z,9.75
2023-04-15T04:34:48.312Z,11.30
2023-04-15T04:38:50.714Z,7.55
2023-04-15T04:42:53.315Z,9.52
2023-04-15T04:46:55.523Z,7.22
2023-04-15T04:50:57.797Z,11.05
2023-04-15T04:54:59.768Z,7.82
2023-04-15T04:59:02.068Z,6.63
2023-04-15T05:03:04.523Z,8.75
2023-04-15T05:07:06.333Z,6.10
2023-04-15T05:11:07.995Z,5.97
2023-04-15T05:15:10.273Z,6.43
2023-04-15T05:19:12.236Z,5.70
2023-04-15T05:23:13.980Z,6.15
2023-04-15T05:27:15.832Z,5.10
2023-04-15T05:31:17.584Z,5.07
2023-04-15T05:35:19.298Z,6.10
2023-04-15T05:39:21.416Z,6.18
2023-04-15T05:43:25.018Z,5.95
2023-04-15T05:47:28.980Z,6.45
2023-04-15T05:51:31.726Z,5.97
2023-04-15T05:55:33.424Z,5.72
2023-04-15T05:59:35.204Z,4.72
2023-04-15T06:03:38.106Z,7.05
2023-04-15T06:07:39.927Z,9.40
2023-04-15T06:11:41.644Z,8.32
2023-04-15T06:15:43.345Z,7.78
2023-04-15T06:19:45.084Z,6.43
2023-04-15T06:23:46.807Z,5.85
2023-04-15T06:27:48.795Z,6.15
2023-04-15T06:31:51.242Z,5.78
2023-04-15T06:35:53.300Z,8.15
2023-04-15T06:39:54.955Z,9.88
2023-04-15T06:43:56.711Z,6.38
2023-04-15T06:47:58.378Z,8.18
2023-04-15T06:52:00.690Z,8.60
2023-04-15T06:56:02.323Z,6.40
2023-04-15T07:00:05.803Z,7.13
2023-04-15T07:04:07.713Z,5.13
2023-04-15T07:08:09.551Z,7.13
2023-04-15T07:12:11.591Z,6.47
2023-04-15T07:16:13.707Z,6.60
2023-04-15T07:20:15.488Z,7.13
2023-04-15T07:24:18.935Z,6.15
2023-04-15T07:28:20.695Z,6.55
2023-04-15T07:32:22.414Z,18.20
2023-04-15T07:36:24.109Z,7.03
2023-04-15T07:40:25.822Z,7.35
2023-04-15T07:44:27.809Z,7.53
2023-04-15T07:48:29.478Z,6.20
2023-04-15T07:52:31.367Z,5.07
2023-04-15T07:56:33.111Z,6.00
2023-04-15T08:00:34.795Z,4.90
2023-04-15T08:04:36.751Z,5.97
2023-04-15T08:08:38.581Z,9.70
2023-04-15T08:12:40.750Z,5.78
2023-04-15T08:16:42.494Z,5.60
2023-04-15T08:20:44.214Z,7.18
2023-04-15T08:24:46.573Z,7.38
2023-04-15T08:28:49.130Z,6.47
2023-04-15T08:32:51.267Z,7.13
2023-04-15T08:36:53.237Z,7.95
2023-04-15T08:40:58.321Z,5.68
2023-04-15T08:45:01.715Z,5.20
2023-04-15T08:49:05.201Z,5.82
2023-04-15T08:53:07.612Z,7.45
2023-04-15T08:57:09.416Z,8.27
2023-04-15T09:01:13.193Z,6.90
2023-04-15T09:05:15.046Z,5.53
2023-04-15T09:09:16.820Z,5.38
2023-04-15T09:13:18.577Z,6.63
2023-04-15T09:17:24.708Z,6.50
2023-04-15T09:21:26.590Z,7.67
2023-04-15T09:25:34.294Z,6.95
2023-04-15T09:29:37.411Z,6.03
2023-04-15T09:33:56.883Z,7.03
2023-04-15T09:38:05.484Z,6.30
2023-04-15T09:42:07.885Z,6.13
2023-04-15T09:46:09.859Z,5.25
2023-04-15T09:50:11.675Z,7.60
2023-04-15T09:54:13.382Z,9.90
2023-04-15T09:58:21.605Z,5.38
2023-04-15T10:02:23.540Z,6.80
2023-04-15T10:06:29.204Z,5.82
2023-04-15T10:10:31.318Z,5.97
2023-04-15T10:14:34.924Z,5.78
2023-04-15T10:18:40.619Z,6.53
2023-04-15T10:22:43.058Z,7.13
2023-04-15T10:26:45.590Z,5.32
2023-04-15T10:30:49.611Z,6.60
2023-04-15T10:34:54.430Z,7.03
2023-04-15T10:38:56.456Z,5.72
2023-04-15T10:43:00.149Z,4.80
2023-04-15T10:47:07.160Z,5.53
2023-04-15T10:55:11.023Z,3.50
2023-04-15T10:59:12.737Z,5.05
2023-04-15T11:03:14.920Z,4.90
2023-04-15T11:07:34.101Z,4.45
2023-04-15T11:12:05.661Z,4.82
2023-04-15T11:16:07.711Z,4.22
2023-04-15T11:20:10.147Z,6.13
2023-04-15T11:24:11.798Z,6.22
2023-04-15T11:28:13.929Z,4.13
2023-04-15T11:32:15.689Z,5.15
2023-04-15T11:36:17.841Z,5.00
2023-04-15T11:40:27.348Z,3.63
2023-04-15T11:44:29.044Z,2.97
2023-04-15T11:48:33.123Z,2.33
2023-04-15T11:52:34.837Z,4.30
2023-04-15T11:56:36.550Z,2.90
2023-04-15T12:00:40.246Z,2.50
2023-04-15T12:04:42.227Z,2.30
2023-04-15T12:09:13.228Z,3.92
2023-04-15T12:13:15.241Z,3.33
2023-04-15T12:17:17.336Z,2.70
2023-04-15T12:21:20.550Z,2.72
2023-04-15T12:25:34.416Z,3.13
2023-04-15T12:29:38.652Z,2.60
2023-04-15T12:33:40.727Z,2.20
2023-04-15T12:37:42.721Z,2.95
2023-04-15T12:41:44.399Z,2.30
2023-04-15T12:45:46.118Z,2.45
2023-04-15T12:49:49.636Z,2.72
2023-04-15T12:53:51.384Z,4.25
2023-04-15T12:57:53.095Z,3.53
2023-04-15T13:01:54.937Z,2.55
2023-04-15T13:05:57.758Z,2.40
2023-04-15T13:09:59.449Z,2.10
2023-04-15T13:14:03.520Z,2.28
2023-04-15T13:18:07.095Z,1.83
2023-04-15T13:22:08.884Z,3.13
2023-04-15T13:26:10.620Z,3.25
2023-04-15T13:30:13.162Z,2.28
2023-04-15T13:34:14.855Z,2.40
2023-04-15T13:38:16.695Z,2.42
2023-04-15T13:42:18.371Z,2.50
2023-04-15T13:46:20.283Z,2.97
2023-04-15T13:50:22.064Z,5.03
2023-04-15T13:54:23.749Z,4.28
2023-04-15T13:58:40.918Z,3.47
2023-04-15T14:02:43.083Z,3.30
2023-04-15T14:06:45.086Z,2.60
2023-04-15T14:10:48.479Z,3.22
2023-04-15T14:14:50.550Z,2.85
2023-04-15T14:18:52.465Z,2.75
2023-04-15T14:22:54.231Z,3.58
2023-04-15T14:26:57.475Z,3.47
2023-04-15T14:30:59.332Z,3.60
2023-04-15T14:35:01.638Z,3.55
2023-04-15T14:39:04.162Z,3.33
2023-04-15T14:43:06.987Z,2.75
2023-04-15T14:47:08.811Z,3.58
2023-04-15T14:51:11.306Z,4.65
2023-04-15T14:55:14.312Z,4.38
2023-04-15T14:59:16.049Z,4.63
2023-04-15T15:03:17.901Z,3.75
2023-04-15T15:07:19.667Z,2.30
2023-04-15T15:11:21.769Z,2.60
2023-04-15T15:19:27.189Z,4.25
2023-04-15T15:23:28.941Z,4.63
2023-04-15T15:27:30.673Z,3.25
2023-04-15T15:31:32.548Z,4.50
2023-04-15T15:35:34.672Z,2.80
2023-04-15T15:39:36.447Z,3.00
2023-04-15T15:43:38.140Z,2.97
2023-04-15T15:47:41.043Z,3.50
2023-04-15T15:51:42.830Z,3.00
2023-04-15T15:55:44.491Z,2.70
2023-04-15T15:59:46.334Z,3.47
2023-04-15T16:03:48.121Z,2.92
2023-04-15T16:07:49.948Z,2.85
2023-04-15T16:11:51.604Z,4.32
2023-04-15T16:15:53.302Z,3.05
2023-04-15T16:19:57.646Z,3.40
2023-04-15T16:24:03.027Z,3.33
2023-04-15T16:28:14.736Z,5.90
2023-04-15T16:32:24.913Z,3.53
2023-04-15T16:36:27.504Z,5.63
2023-04-15T16:40:29.207Z,4.07
2023-04-15T16:44:30.985Z,3.60
2023-04-15T16:48:33.781Z,3.15
2023-04-15T16:52:36.256Z,4.57
2023-04-15T16:56:37.937Z,5.63
2023-04-15T17:00:39.830Z,3.58
2023-04-15T17:04:41.969Z,4.47
2023-04-15T17:08:44.503Z,4.57
2023-04-15T17:12:46.241Z,3.60
2023-04-15T17:16:48.045Z,3.97
2023-04-15T17:20:49.887Z,4.18
2023-04-15T17:24:51.965Z,4.22
2023-04-15T17:28:55.330Z,3.10
2023-04-15T17:37:24.025Z,3.72
2023-04-15T17:41:45.731Z,5.13
2023-04-15T17:46:07.950Z,4.30
2023-04-15T17:50:29.622Z,4.40
2023-04-15T17:54:51.252Z,4.22
2023-04-15T17:59:12.947Z,4.72
2023-04-15T18:03:34.818Z,3.50
2023-04-15T18:07:56.567Z,4.65
2023-04-15T18:12:18.199Z,5.28
2023-04-15T18:16:40.669Z,5.03
2023-04-15T18:21:02.636Z,4.95
2023-04-15T18:25:04.958Z,6.03
2023-04-15T18:29:06.685Z,6.57
2023-04-15T18:33:08.500Z,5.63
2023-04-15T18:37:10.293Z,5.63
2023-04-15T18:41:12.082Z,5.65
2023-04-15T18:45:13.842Z,7.18
2023-04-15T18:49:15.646Z,7.18
2023-04-15T18:53:17.611Z,7.30
2023-04-15T18:57:24.550Z,6.32
2023-04-15T19:01:34.812Z,5.93
2023-04-15T19:05:36.907Z,6.32
2023-04-15T19:09:38.683Z,7.20
2023-04-15T19:13:40.820Z,6.38
2023-04-15T19:17:42.652Z,8.40
2023-04-15T19:21:46.648Z,5.85
2023-04-15T19:25:48.418Z,5.40
2023-04-15T19:29:50.237Z,7.03
2023-04-15T19:33:52.279Z,8.27
2023-04-15T19:37:54.014Z,7.60
2023-04-15T19:41:55.982Z,6.78
2023-04-15T19:45:57.776Z,8.10
2023-04-15T19:49:59.560Z,4.50
2023-04-15T19:54:01.295Z,5.70
2023-04-15T19:58:03.113Z,5.53
2023-04-15T20:02:04.985Z,4.13
2023-04-15T20:06:06.806Z,4.50
2023-04-15T20:10:13.073Z,6.28
2023-04-15T20:14:15.390Z,7.18
2023-04-15T20:18:17.145Z,6.88
2023-04-15T20:22:18.854Z,8.27
2023-04-15T20:26:21.497Z,7.10
2023-04-15T20:30:23.240Z,5.63
2023-04-15T20:34:24.992Z,5.95
2023-04-15T20:38:26.708Z,6.78
2023-04-15T20:42:28.657Z,6.93
2023-04-15T20:46:30.627Z,7.57
2023-04-15T20:50:32.441Z,6.22
2023-04-15T20:54:34.244Z,9.82
2023-04-15T20:58:36.232Z,8.88
2023-04-15T21:02:38.474Z,10.15
2023-04-15T21:06:40.520Z,8.45
2023-04-15T21:10:42.283Z,6.63
2023-04-15T21:14:44.228Z,8.77
2023-04-15T21:18:46.372Z,6.50
2023-04-15T21:22:48.122Z,6.95
2023-04-15T21:26:50.050Z,6.53
2023-04-15T21:30:51.837Z,6.30
2023-04-15T21:34:53.607Z,7.93
2023-04-15T21:38:55.419Z,8.52
2023-04-15T21:42:57.091Z,8.07
2023-04-15T21:46:58.831Z,6.75
2023-04-15T21:51:01.675Z,6.53
2023-04-15T21:55:03.623Z,5.15
2023-04-15T21:59:05.577Z,6.32
2023-04-15T22:03:07.700Z,4.18
2023-04-15T22:07:09.507Z,4.82
2023-04-15T22:11:20.892Z,5.82
2023-04-15T22:15:23.016Z,7.97
2023-04-15T22:19:25.953Z,8.13
2023-04-15T22:23:27.645Z,5.35
2023-04-15T22:27:29.354Z,7.13
2023-04-15T22:31:31.218Z,5.13
2023-04-15T22:35:34.341Z,5.70
2023-04-15T22:39:36.383Z,5.43
2023-04-15T22:43:38.133Z,5.25
2023-04-15T22:47:39.899Z,6.25
2023-04-15T22:51:41.634Z,7.78
2023-04-15T22:55:49.277Z,6.82
2023-04-15T22:59:51.034Z,5.35
2023-04-15T23:03:56.110Z,4.72
2023-04-15T23:08:00.034Z,5.50
2023-04-15T23:12:02.671Z,5.00
2023-04-15T23:16:04.770Z,5.47
2023-04-15T23:20:07.197Z,7.65
2023-04-15T23:24:08.855Z,5.88
2023-04-15T23:28:10.563Z,6.00
2023-04-15T23:32:12.237Z,5.20
2023-04-15T23:36:13.917Z,4.82
2023-04-15T23:40:15.950Z,6.38
2023-04-15T23:44:17.643Z,6.60
2023-04-15T23:48:19.370Z,6.97
2023-04-15T23:52:21.082Z,5.18
2023-04-15T23:56:22.780Z,4.45
